Latest Weather Observations for Yulara

IDD60801

Issued at 11:31 pm CST Tuesday 23 April 2019 (issued every 10 minutes, with the page automatically refreshed every 10 minutes)

About weather observations | Map of weather stations | Latest weather observations for NT | Other Formats
Station Details ID: 015635 Name: YULARA AIRPORT Lat: -25.19 Lon: 130.97 Height: 492.0 m
Data from the previous 72 hours. | See also: Recent months at Yulara
Date/Time
CST
Temp
°C
App
Temp
°C
Dew
Point
°C
Rel
Hum
%
Delta-T
°C
Wind Press
QNH
hPa
Press
MSL
hPa
Rain since
9am
mm
Dir  Spd
km/h
Gust
km/h
Spd
kts
Gust
kts
23/11:30pm 18.1 14.4 4.3 40 6.7 SE 13 17 7 9 1022.8 1020.6 0.0
23/11:00pm 18.4 14.4 3.1 36 7.3 SE 13 15 7 8 1022.9 1020.7 0.0
23/10:30pm 19.0 14.5 2.4 33 7.8 SE 15 17 8 9 1022.8 1020.6 0.0
23/10:00pm 18.9 14.8 2.3 33 7.8 SSE 13 15 7 8 1022.7 1020.5 0.0
23/09:30pm 19.2 15.5 2.1 32 8.0 SE 11 13 6 7 1022.6 1020.4 0.0
23/09:00pm 19.3 15.6 2.2 32 8.0 SSE 11 13 6 7 1022.3 1020.1 0.0
23/08:30pm 19.5 16.0 1.5 30 8.3 SE 9 11 5 6 1022.1 1019.8 0.0
23/08:00pm 21.7 18.4 2.4 28 9.3 ESE 9 11 5 6 1021.7 1019.4 0.0
23/07:30pm 22.0 18.3 2.2 27 9.5 SE 11 11 6 6 1021.1 1018.8 0.0
23/07:00pm 23.7 20.4 2.5 25 10.4 ESE 9 13 5 7 1020.9 1018.7 0.0
23/06:30pm 24.7 21.1 2.8 24 10.8 ESE 11 13 6 7 1020.6 1018.4 0.0
23/06:00pm 25.7 21.1 3.6 24 11.2 ESE 17 20 9 11 1020.4 1018.1 0.0
23/05:30pm 26.1 22.2 3.4 23 11.4 SE 13 20 7 11 1020.1 1017.8 0.0
23/05:00pm 26.1 22.1 2.7 22 11.7 SE 13 22 7 12 1020.0 1017.7 0.0
23/04:30pm 26.6 22.4 1.8 20 12.2 ENE 13 24 7 13 1019.9 1017.6 0.0
23/04:00pm 26.5 21.8 1.0 19 12.4 ESE 15 32 8 17 1019.8 1017.5 0.0
23/03:30pm 25.5 20.8 0.9 20 11.8 SE 15 24 8 13 1019.9 1017.6 0.0
23/03:00pm 25.9 21.1 0.5 19 12.1 SE 15 24 8 13 1020.1 1017.8 0.0
23/02:30pm 25.5 20.3 2.2 22 11.5 E 19 28 10 15 1020.6 1018.4 0.0
23/02:00pm 25.3 20.8 2.1 22 11.4 ESE 15 22 8 12 1020.9 1018.7 0.0
23/01:30pm 24.5 19.9 1.4 22 11.1 ESE 15 28 8 15 1021.6 1019.3 0.0
23/01:00pm 23.9 18.9 3.8 27 10.1 ESE 19 26 10 14 1022.1 1019.8 0.0
23/12:30pm 23.0 17.7 3.0 27 9.8 ESE 20 37 11 20 1022.6 1020.4 0.0
23/12:00pm 22.4 17.2 3.5 29 9.3 E 20 32 11 17 1023.3 1021.0 0.0
23/11:30am 21.5 16.4 4.1 32 8.6 ESE 20 33 11 18 1024.0 1021.7 0.0
23/11:00am 20.9 15.1 4.5 34 8.2 ESE 24 33 13 18 1024.3 1022.1 0.0
23/10:30am 20.1 14.3 4.2 35 7.8 ESE 24 33 13 18 1024.7 1022.5 0.0
23/10:00am 19.2 13.4 4.2 37 7.3 ESE 24 33 13 18 1024.8 1022.6 0.0
23/09:30am 18.3 13.0 3.0 36 7.2 ESE 20 32 11 17 1024.6 1022.4 0.0
23/09:00am 16.6 10.4 1.9 37 6.7 ESE 24 32 13 17 1024.5 1022.3 0.0
23/08:30am 14.6 9.4 2.2 43 5.6 SE 19 30 10 16 1024.4 1022.2 0.0
23/08:00am 12.1 8.0 2.0 50 4.5 SSE 13 20 7 11 1024.3 1022.1 0.0
23/07:30am 9.3 5.9 1.7 59 3.2 S 9 9 5 5 1024.2 1022.0 0.0
23/07:00am 9.4 6.0 1.6 58 3.3 SSE 9 13 5 7 1023.7 1021.4 0.0
23/06:30am 10.3 6.4 1.4 54 3.8 SE 11 15 6 8 1023.3 1021.0 0.0
23/06:00am 10.5 6.3 1.6 54 3.8 SE 13 17 7 9 1023.0 1020.8 0.0
23/05:30am 10.3 6.8 1.4 54 3.8 SE 9 13 5 7 1022.9 1020.7 0.0
23/05:00am 10.2 6.7 1.3 54 3.8 SSE 9 11 5 6 1023.1 1020.9 0.0
23/04:30am 10.5 7.4 1.1 52 4.0 SSE 7 9 4 5 1022.8 1020.6 0.0
23/04:00am 10.9 7.7 0.9 50 4.3 SSE 7 9 4 5 1022.7 1020.5 0.0
23/03:30am 12.6 9.1 1.3 46 4.9 SE 9 13 5 7 1022.6 1020.4 0.0
23/03:00am 13.8 10.0 1.5 43 5.4 ESE 11 17 6 9 1022.4 1020.2 0.0
23/02:30am 13.5 10.0 1.2 43 5.4 SE 9 13 5 7 1022.7 1020.5 0.0
23/02:00am 14.2 9.9 1.2 41 5.8 SE 13 17 7 9 1022.9 1020.7 0.0
23/01:30am 14.3 10.0 0.9 40 5.9 SE 13 19 7 10 1023.3 1021.0 0.0
23/01:00am 14.8 10.4 0.6 38 6.2 SE 13 17 7 9 1023.6 1021.3 0.0
23/12:30am 15.0 10.7 0.8 38 6.2 SE 13 19 7 10 1023.6 1021.3 0.0
23/12:00am 15.6 11.2 0.6 36 6.6 SE 13 19 7 10 1023.6 1021.3 0.0
 
Date/Time
CST
Temp
°C
App
Temp
°C
Dew
Point
°C
Rel
Hum
%
Delta-T
°C
Wind Press
QNH
hPa
Press
MSL
hPa
Rain since
9am
mm
Dir  Spd
km/h
Gust
km/h
Spd
kts
Gust
kts
22/11:30pm 15.6 11.6 0.6 36 6.6 SE 11 15 6 8 1023.8 1021.5 0.0
22/11:00pm 15.8 11.4 0.4 35 6.8 SE 13 15 7 8 1023.8 1021.5 0.0
22/10:30pm 16.6 12.2 0.3 33 7.2 SE 13 15 7 8 1023.9 1021.6 0.0
22/10:00pm 17.4 12.7 0.6 32 7.5 SE 15 19 8 10 1023.8 1021.5 0.0
22/09:30pm 17.9 13.6 1.0 32 7.7 SSE 13 17 7 9 1023.5 1021.2 0.0
22/09:00pm 18.5 14.3 1.9 33 7.7 SSE 13 17 7 9 1022.9 1020.7 0.0
22/08:30pm 18.9 14.8 2.3 33 7.8 SSE 13 15 7 8 1022.6 1020.4 0.0
22/08:00pm 20.2 16.6 3.0 32 8.3 ESE 11 13 6 7 1022.0 1019.7 0.0
22/07:30pm 21.0 17.8 3.2 31 8.6 SE 9 11 5 6 1021.6 1019.3 0.0
22/07:00pm 21.9 18.4 3.6 30 9.0 SE 11 17 6 9 1021.2 1018.9 0.0
22/06:30pm 23.3 18.7 3.8 28 9.7 SE 17 24 9 13 1020.8 1018.6 0.0
22/06:00pm 24.0 19.0 4.4 28 9.9 SE 20 30 11 16 1020.5 1018.3 0.0
22/05:30pm 24.5 19.5 4.8 28 10.1 SE 20 28 11 15 1020.2 1017.9 0.0
22/05:00pm 24.7 20.0 5.0 28 10.2 SE 19 26 10 14 1020.0 1017.7 0.0
22/04:30pm 24.8 20.2 5.6 29 10.0 ESE 19 26 10 14 1020.1 1017.8 0.0
22/04:00pm 24.6 19.8 4.9 28 10.1 ESE 19 28 10 15 1020.1 1017.8 0.0
22/03:30pm 24.6 19.8 5.4 29 9.9 SE 20 33 11 18 1020.0 1017.7 0.0
22/03:00pm 24.3 19.6 5.1 29 9.9 ESE 19 30 10 16 1020.4 1018.1 0.0
22/02:30pm 24.1 19.9 5.5 30 9.6 SE 17 24 9 13 1020.6 1018.4 0.0
22/02:00pm 23.7 18.8 5.1 30 9.6 E 20 33 11 18 1020.9 1018.7 0.0
22/01:30pm 23.4 19.1 5.3 31 9.3 ESE 17 28 9 15 1021.5 1019.2 0.0
22/01:00pm 22.0 17.1 5.0 33 8.6 SE 20 32 11 17 1022.0 1019.7 0.0
22/12:30pm 22.6 17.7 5.1 32 8.9 E 20 32 11 17 1022.5 1020.3 0.0
22/12:00pm 21.1 15.3 4.6 34 8.2 E 24 35 13 19 1023.0 1020.8 0.0
22/11:30am 20.3 14.5 4.4 35 7.8 ESE 24 39 13 21 1023.6 1021.3 0.0
22/11:00am 19.6 13.1 4.5 37 7.5 ESE 28 43 15 23 1023.9 1021.6 0.0
22/10:30am 18.4 11.9 4.6 40 6.7 ESE 28 41 15 22 1024.3 1022.1 0.0
22/10:00am 18.1 12.0 5.0 42 6.5 ESE 26 41 14 22 1024.5 1022.3 0.0
22/09:30am 16.6 10.5 4.9 46 5.7 ESE 26 37 14 20 1024.5 1022.3 0.0
22/09:00am 15.4 8.9 4.5 48 5.2 ESE 28 35 15 19 1024.3 1022.1 0.0
22/08:30am 14.2 9.0 3.7 49 4.9 SE 20 26 11 14 1024.0 1021.7 0.0
22/08:00am 12.4 8.0 2.6 51 4.4 SSE 15 20 8 11 1023.7 1021.4 0.0
22/07:30am 10.7 7.4 2.3 56 3.7 SSE 9 13 5 7 1023.4 1021.1 0.0
22/07:00am 10.1 6.7 2.0 57 3.5 SSE 9 11 5 6 1023.3 1021.0 0.0
22/06:30am 10.4 7.0 2.0 56 3.6 SSE 9 11 5 6 1023.0 1020.8 0.0
22/06:00am 10.8 7.4 1.9 54 3.9 SE 9 11 5 6 1022.5 1020.3 0.0
22/05:30am 11.3 7.9 1.8 52 4.1 SE 9 13 5 7 1022.2 1019.9 0.0
22/05:00am 11.7 7.9 1.6 50 4.4 SSE 11 15 6 8 1021.9 1019.6 0.0
22/04:30am 12.2 8.4 1.5 48 4.7 SSE 11 15 6 8 1021.8 1019.5 0.0
22/04:00am 13.0 8.8 1.7 46 5.0 SSE 13 19 7 10 1021.8 1019.5 0.0
22/03:30am 13.3 9.0 1.0 43 5.4 SSE 13 19 7 10 1021.6 1019.3 0.0
22/03:00am 13.9 9.5 0.5 40 5.8 SSE 13 17 7 9 1021.5 1019.2 0.0
22/02:30am 14.7 10.4 0.9 39 6.1 SSE 13 19 7 10 1021.7 1019.4 0.0
22/02:00am 15.4 10.3 0.8 37 6.5 SSE 17 20 9 11 1021.7 1019.4 0.0
22/01:30am 16.1 10.6 0.7 35 6.8 SE 19 24 10 13 1021.7 1019.4 0.0
22/01:00am 16.3 10.9 1.2 36 6.8 SE 19 26 10 14 1021.8 1019.5 0.0
22/12:30am 16.3 12.0 1.2 36 6.8 SSE 13 19 7 10 1021.9 1019.6 0.0
22/12:00am 16.9 11.8 1.0 34 7.1 SSE 17 22 9 12 1022.0 1019.7 0.0
 
Date/Time
CST
Temp
°C
App
Temp
°C
Dew
Point
°C
Rel
Hum
%
Delta-T
°C
Wind Press
QNH
hPa
Press
MSL
hPa
Rain since
9am
mm
Dir  Spd
km/h
Gust
km/h
Spd
kts
Gust
kts
21/11:30pm 17.4 12.4 1.4 34 7.3 SSE 17 22 9 12 1022.1 1019.8 0.0
21/11:00pm 18.0 12.7 1.9 34 7.5 SSE 19 24 10 13 1022.3 1020.1 0.0
21/10:30pm 18.3 12.9 2.2 34 7.5 SSE 20 26 11 14 1022.2 1019.9 0.0
21/10:00pm 18.8 13.4 2.6 34 7.7 SSE 20 30 11 16 1022.3 1020.1 0.0
21/09:30pm 19.3 14.2 3.1 34 7.7 SSE 19 30 10 16 1021.9 1019.6 0.0
21/09:00pm 19.7 14.4 3.0 33 8.0 SSE 20 30 11 16 1021.5 1019.2 0.0
21/08:30pm 20.2 14.8 2.5 31 8.4 SSE 20 30 11 16 1021.1 1018.8 0.0
21/08:00pm 20.4 15.2 2.3 30 8.6 S 19 24 10 13 1020.6 1018.4 0.0
21/07:30pm 21.1 15.7 2.4 29 8.9 S 20 30 11 16 1020.1 1017.8 0.0
21/07:00pm 21.7 16.4 2.9 29 9.1 SSE 20 30 11 16 1019.7 1017.4 0.0
21/06:30pm 22.5 17.2 3.1 28 9.5 SSE 20 30 11 16 1019.3 1017.0 0.0
21/06:00pm 23.5 17.4 2.9 26 10.1 SSE 24 30 13 16 1018.8 1016.6 0.0
21/05:30pm 24.5 18.9 3.2 25 10.6 SSE 22 33 12 18 1018.5 1016.2 0.0
21/05:00pm 24.9 19.6 3.0 24 10.9 SSE 20 30 11 16 1018.2 1015.9 0.0
21/04:30pm 25.3 19.8 3.9 25 10.8 S 22 35 12 19 1018.1 1015.8 0.0
21/04:00pm 25.1 19.8 3.1 24 11.0 SSE 20 32 11 17 1018.1 1015.8 0.0
21/03:30pm 24.9 20.8 4.1 26 10.5 SE 15 28 8 15 1018.4 1016.1 0.0
21/03:00pm 24.4 19.9 4.2 27 10.2 SSE 17 26 9 14 1018.5 1016.2 0.0
21/02:30pm 23.9 18.9 3.8 27 10.1 SSE 19 30 10 16 1018.7 1016.5 0.0
21/02:00pm 23.1 18.1 3.6 28 9.7 SE 19 32 10 17 1019.2 1016.9 0.0
21/01:30pm 22.7 18.1 3.8 29 9.4 SE 17 32 9 17 1019.5 1017.2 0.0
21/01:00pm 22.4 17.3 4.0 30 9.2 SE 20 33 11 18 1020.1 1017.8 0.0
21/12:30pm 21.5 16.4 3.2 30 8.9 ESE 19 30 10 16 1020.5 1018.3 0.0
21/12:00pm 20.2 14.9 2.1 30 8.5 SSE 19 30 10 16 1021.4 1019.1 0.0
21/11:30am 19.4 14.1 1.9 31 8.2 SSE 19 32 10 17 1021.7 1019.4 0.0
21/11:00am 18.4 12.9 1.9 33 7.7 SSE 20 35 11 19 1022.1 1019.8 0.0
21/10:30am 17.7 12.1 1.2 33 7.5 SE 20 32 11 17 1022.3 1020.1 0.0
21/10:00am 17.8 11.5 1.3 33 7.5 SSE 24 32 13 17 1022.3 1020.1 0.0
21/09:30am 15.6 9.1 0.6 36 6.6 SSE 24 32 13 17 1022.3 1020.1 0.0
21/09:00am 15.2 8.7 0.6 37 6.4 S 24 32 13 17 1022.4 1020.2 0.0
21/08:30am 15.0 9.1 1.5 40 6.0 S 22 35 12 19 1022.0 1019.7 0.0
21/08:00am 14.1 9.6 2.0 44 5.4 SSE 15 22 8 12 1021.6 1019.3 0.0
21/07:30am 13.6 8.8 2.5 47 5.0 SSE 17 33 9 18 1021.2 1018.9 0.0
21/07:00am 13.8 9.0 4.9 55 4.3 SSE 19 30 10 16 1020.2 1017.9 0.0
21/06:30am 14.0 9.4 5.6 57 4.1 S 19 28 10 15 1019.8 1017.5 0.0
21/06:00am 14.2 8.8 6.3 59 3.9 S 24 35 13 19 1019.5 1017.2 0.0
21/05:30am 14.3 9.0 6.6 60 3.8 S 24 33 13 18 1019.2 1016.9 0.0
21/05:00am 14.4 10.0 7.2 62 3.6 SSE 20 30 11 16 1018.5 1016.2 0.0
21/04:30am 14.7 10.1 8.2 65 3.3 S 22 37 12 20 1018.2 1015.9 0.0
21/04:00am 14.9 11.0 9.3 69 2.9 S 20 28 11 15 1018.0 1015.7 0.0
21/03:30am 15.1 11.3 9.7 70 2.9 S 20 32 11 17 1017.7 1015.4 0.0
21/03:00am 15.5 12.0 10.1 70 2.9 S 19 24 10 13 1017.7 1015.4 0.0
21/02:30am 16.0 12.3 10.1 68 3.2 SSE 20 30 11 16 1018.0 1015.7 0.0
21/02:00am 16.1 11.3 10.2 68 3.2 S 26 35 14 19 1017.7 1015.4 0.0
21/01:33am 16.4 10.5 10.3 67 3.3 S 32 52 17 28 1017.4 1015.1 0.0
21/01:30am 16.5 10.9 10.1 66 3.5 S 30 43 16 23 1017.5 1015.2 0.0
21/01:00am 16.8 10.6 10.2 65 3.6 S 33 48 18 26 1017.2 1014.9 0.0
21/12:30am 17.3 10.8 10.2 63 3.9 S 35 50 19 27 1017.0 1014.7 0.0
21/12:00am 18.6 12.5 9.9 57 4.7 S 32 41 17 22 1016.8 1014.4 0.0

Other formats

Comma delimited format used in spreadsheet applications
http://www.bom.gov.au/fwo/IDD60801/IDD60801.94462.axf

JavaScript Object Notation format (JSON) in row-major order
http://www.bom.gov.au/fwo/IDD60801/IDD60801.94462.json

Data quality

Most of these data are generated automatically and are frequently updated. Quality checks on data are not normally performed. It is possible for incorrect values to appear. Refer to information at About Latest Weather Observations and please check the disclaimer before using these data.